TAF and METAR

METAR for Zabol Airport

OIZB 221200Z 03008KT CAVOK 33/02 Q1012
Report created 22. okt 14:00
wind 8 knots from NNE (030°) Clear sky Temperature 33° with dewpoint at 2° (Humidity 14.07%) Pressure 1012 hPa
No TAF available for Zabol Airport
Zabol Airport in Iran at 489m

Latest 5 airports